sensor_id;sensor_type;location;lat;lon;timestamp;P1;durP1;ratioP1;P2;durP2;ratioP2
20038;SDS011;21737;42.868;25.320;2024-03-25T00:01:55;5.82;;;2.22;;
20038;SDS011;21737;42.868;25.320;2024-03-25T00:04:21;4.25;;;2.38;;
20038;SDS011;21737;42.868;25.320;2024-03-25T00:06:48;4.63;;;2.30;;
20038;SDS011;21737;42.868;25.320;2024-03-25T00:09:16;5.50;;;2.10;;
20038;SDS011;21737;42.868;25.320;2024-03-25T00:11:43;4.68;;;2.13;;
20038;SDS011;21737;42.868;25.320;2024-03-25T00:14:09;4.75;;;2.65;;
20038;SDS011;21737;42.868;25.320;2024-03-25T00:16:36;5.85;;;2.85;;
20038;SDS011;21737;42.868;25.320;2024-03-25T00:19:03;6.43;;;2.60;;
20038;SDS011;21737;42.868;25.320;2024-03-25T00:21:31;4.60;;;2.53;;
20038;SDS011;21737;42.868;25.320;2024-03-25T00:23:58;4.75;;;2.70;;
20038;SDS011;21737;42.868;25.320;2024-03-25T00:26:26;5.05;;;2.75;;
20038;SDS011;21737;42.868;25.320;2024-03-25T00:28:54;5.18;;;2.13;;
20038;SDS011;21737;42.868;25.320;2024-03-25T00:31:21;5.55;;;2.65;;
20038;SDS011;21737;42.868;25.320;2024-03-25T00:33:47;4.30;;;2.03;;
20038;SDS011;21737;42.868;25.320;2024-03-25T00:36:13;3.95;;;2.35;;
20038;SDS011;21737;42.868;25.320;2024-03-25T00:38:39;4.63;;;2.05;;
20038;SDS011;21737;42.868;25.320;2024-03-25T00:41:05;6.65;;;2.10;;
20038;SDS011;21737;42.868;25.320;2024-03-25T00:43:37;5.07;;;2.20;;
20038;SDS011;21737;42.868;25.320;2024-03-25T00:46:05;5.35;;;2.30;;
20038;SDS011;21737;42.868;25.320;2024-03-25T00:48:37;5.18;;;2.70;;
20038;SDS011;21737;42.868;25.320;2024-03-25T00:51:06;4.72;;;2.20;;
20038;SDS011;21737;42.868;25.320;2024-03-25T00:53:31;5.55;;;2.50;;
20038;SDS011;21737;42.868;25.320;2024-03-25T00:55:58;4.95;;;2.85;;
20038;SDS011;21737;42.868;25.320;2024-03-25T00:58:26;3.80;;;1.73;;
20038;SDS011;21737;42.868;25.320;2024-03-25T01:00:52;6.60;;;2.80;;
20038;SDS011;21737;42.868;25.320;2024-03-25T01:03:18;4.63;;;2.63;;
20038;SDS011;21737;42.868;25.320;2024-03-25T01:05:44;6.25;;;2.42;;
20038;SDS011;21737;42.868;25.320;2024-03-25T01:08:10;3.97;;;1.30;;
20038;SDS011;21737;42.868;25.320;2024-03-25T01:10:39;3.65;;;2.08;;
20038;SDS011;21737;42.868;25.320;2024-03-25T01:13:05;3.97;;;2.17;;
20038;SDS011;21737;42.868;25.320;2024-03-25T01:15:31;4.68;;;2.67;;
20038;SDS011;21737;42.868;25.320;2024-03-25T01:17:57;3.67;;;1.80;;
20038;SDS011;21737;42.868;25.320;2024-03-25T01:20:23;5.45;;;2.47;;
20038;SDS011;21737;42.868;25.320;2024-03-25T01:22:50;4.30;;;2.03;;
20038;SDS011;21737;42.868;25.320;2024-03-25T01:25:16;8.38;;;2.63;;
20038;SDS011;21737;42.868;25.320;2024-03-25T01:27:42;3.17;;;1.65;;
20038;SDS011;21737;42.868;25.320;2024-03-25T01:30:08;6.15;;;2.60;;
20038;SDS011;21737;42.868;25.320;2024-03-25T01:32:34;6.57;;;2.65;;
20038;SDS011;21737;42.868;25.320;2024-03-25T01:35:00;4.82;;;2.65;;
20038;SDS011;21737;42.868;25.320;2024-03-25T01:37:28;5.30;;;2.22;;
20038;SDS011;21737;42.868;25.320;2024-03-25T01:39:54;6.95;;;3.05;;
20038;SDS011;21737;42.868;25.320;2024-03-25T01:42:22;6.72;;;3.00;;
20038;SDS011;21737;42.868;25.320;2024-03-25T01:44:49;4.63;;;1.73;;
20038;SDS011;21737;42.868;25.320;2024-03-25T01:47:16;4.95;;;2.47;;
20038;SDS011;21737;42.868;25.320;2024-03-25T01:49:42;6.38;;;3.28;;
20038;SDS011;21737;42.868;25.320;2024-03-25T01:52:08;6.25;;;1.65;;
20038;SDS011;21737;42.868;25.320;2024-03-25T01:54:35;3.30;;;1.70;;
20038;SDS011;21737;42.868;25.320;2024-03-25T01:57:01;4.03;;;1.75;;
20038;SDS011;21737;42.868;25.320;2024-03-25T01:59:28;2.88;;;1.58;;
20038;SDS011;21737;42.868;25.320;2024-03-25T02:01:54;2.72;;;1.15;;
20038;SDS011;21737;42.868;25.320;2024-03-25T02:04:21;1.23;;;0.73;;
20038;SDS011;21737;42.868;25.320;2024-03-25T02:06:47;1.10;;;0.63;;
20038;SDS011;21737;42.868;25.320;2024-03-25T02:09:16;2.67;;;1.17;;
20038;SDS011;21737;42.868;25.320;2024-03-25T02:11:43;1.25;;;0.35;;
20038;SDS011;21737;42.868;25.320;2024-03-25T02:14:09;2.13;;;0.80;;
20038;SDS011;21737;42.868;25.320;2024-03-25T02:16:36;0.70;;;0.30;;
20038;SDS011;21737;42.868;25.320;2024-03-25T02:19:03;1.48;;;0.50;;
20038;SDS011;21737;42.868;25.320;2024-03-25T02:21:30;1.95;;;0.50;;
20038;SDS011;21737;42.868;25.320;2024-03-25T02:23:59;0.95;;;0.30;;
20038;SDS011;21737;42.868;25.320;2024-03-25T02:26:26;0.40;;;0.28;;
20038;SDS011;21737;42.868;25.320;2024-03-25T02:28:53;0.70;;;0.30;;
20038;SDS011;21737;42.868;25.320;2024-03-25T02:33:48;0.70;;;0.40;;
20038;SDS011;21737;42.868;25.320;2024-03-25T02:36:14;1.33;;;0.43;;
20038;SDS011;21737;42.868;25.320;2024-03-25T02:38:40;3.08;;;0.47;;
20038;SDS011;21737;42.868;25.320;2024-03-25T02:41:07;2.22;;;0.38;;
20038;SDS011;21737;42.868;25.320;2024-03-25T02:43:33;1.08;;;0.43;;
20038;SDS011;21737;42.868;25.320;2024-03-25T02:46:00;1.20;;;0.50;;
20038;SDS011;21737;42.868;25.320;2024-03-25T02:48:27;0.30;;;0.15;;
20038;SDS011;21737;42.868;25.320;2024-03-25T02:50:53;1.90;;;0.40;;
20038;SDS011;21737;42.868;25.320;2024-03-25T02:53:19;0.28;;;0.10;;
20038;SDS011;21737;42.868;25.320;2024-03-25T02:55:45;0.30;;;0.10;;
20038;SDS011;21737;42.868;25.320;2024-03-25T02:58:11;1.27;;;0.30;;
20038;SDS011;21737;42.868;25.320;2024-03-25T03:00:37;0.40;;;0.10;;
20038;SDS011;21737;42.868;25.320;2024-03-25T03:03:03;0.40;;;0.10;;
20038;SDS011;21737;42.868;25.320;2024-03-25T03:05:29;0.30;;;0.15;;
20038;SDS011;21737;42.868;25.320;2024-03-25T03:07:55;0.77;;;0.20;;
20038;SDS011;21737;42.868;25.320;2024-03-25T03:10:21;1.45;;;0.28;;
20038;SDS011;21737;42.868;25.320;2024-03-25T03:12:47;0.28;;;0.10;;
20038;SDS011;21737;42.868;25.320;2024-03-25T03:15:13;0.10;;;0.00;;
20038;SDS011;21737;42.868;25.320;2024-03-25T03:17:41;0.40;;;0.00;;
20038;SDS011;21737;42.868;25.320;2024-03-25T03:20:08;0.45;;;0.20;;
20038;SDS011;21737;42.868;25.320;2024-03-25T03:22:35;0.10;;;0.10;;
20038;SDS011;21737;42.868;25.320;2024-03-25T03:25:02;0.57;;;0.20;;
20038;SDS011;21737;42.868;25.320;2024-03-25T03:27:28;0.20;;;0.10;;
20038;SDS011;21737;42.868;25.320;2024-03-25T03:29:56;0.40;;;0.10;;
20038;SDS011;21737;42.868;25.320;2024-03-25T03:32:25;0.10;;;0.00;;
20038;SDS011;21737;42.868;25.320;2024-03-25T03:34:51;0.00;;;0.00;;
20038;SDS011;21737;42.868;25.320;2024-03-25T03:37:17;0.40;;;0.30;;
20038;SDS011;21737;42.868;25.320;2024-03-25T03:39:43;0.30;;;0.10;;
20038;SDS011;21737;42.868;25.320;2024-03-25T03:42:10;0.22;;;0.13;;
20038;SDS011;21737;42.868;25.320;2024-03-25T03:44:35;0.10;;;0.08;;
20038;SDS011;21737;42.868;25.320;2024-03-25T03:47:01;0.13;;;0.10;;
20038;SDS011;21737;42.868;25.320;2024-03-25T03:49:27;0.30;;;0.10;;
20038;SDS011;21737;42.868;25.320;2024-03-25T03:51:54;0.38;;;0.10;;
20038;SDS011;21737;42.868;25.320;2024-03-25T03:54:20;0.17;;;0.08;;
20038;SDS011;21737;42.868;25.320;2024-03-25T03:56:45;0.20;;;0.08;;
20038;SDS011;21737;42.868;25.320;2024-03-25T03:59:11;0.88;;;0.20;;
20038;SDS011;21737;42.868;25.320;2024-03-25T04:01:37;0.40;;;0.20;;
20038;SDS011;21737;42.868;25.320;2024-03-25T04:04:03;2.60;;;0.50;;
20038;SDS011;21737;42.868;25.320;2024-03-25T04:06:31;1.30;;;0.20;;
20038;SDS011;21737;42.868;25.320;2024-03-25T04:08:57;0.50;;;0.50;;
20038;SDS011;21737;42.868;25.320;2024-03-25T04:11:23;0.47;;;0.28;;
20038;SDS011;21737;42.868;25.320;2024-03-25T04:13:50;1.02;;;0.20;;
20038;SDS011;21737;42.868;25.320;2024-03-25T04:16:16;0.40;;;0.20;;
20038;SDS011;21737;42.868;25.320;2024-03-25T04:18:44;0.13;;;0.10;;
20038;SDS011;21737;42.868;25.320;2024-03-25T04:21:14;0.77;;;0.20;;
20038;SDS011;21737;42.868;25.320;2024-03-25T04:23:40;1.17;;;0.38;;
20038;SDS011;21737;42.868;25.320;2024-03-25T04:26:06;2.58;;;0.45;;
20038;SDS011;21737;42.868;25.320;2024-03-25T04:28:34;1.60;;;0.60;;
20038;SDS011;21737;42.868;25.320;2024-03-25T04:31:00;0.98;;;0.40;;
20038;SDS011;21737;42.868;25.320;2024-03-25T04:33:26;0.60;;;0.30;;
20038;SDS011;21737;42.868;25.320;2024-03-25T04:35:52;2.58;;;1.05;;
20038;SDS011;21737;42.868;25.320;2024-03-25T04:38:18;0.65;;;0.32;;
20038;SDS011;21737;42.868;25.320;2024-03-25T04:40:44;1.02;;;0.35;;
20038;SDS011;21737;42.868;25.320;2024-03-25T04:43:12;8.10;;;2.55;;
20038;SDS011;21737;42.868;25.320;2024-03-25T04:45:39;2.95;;;1.30;;
20038;SDS011;21737;42.868;25.320;2024-03-25T04:48:05;0.63;;;0.32;;
20038;SDS011;21737;42.868;25.320;2024-03-25T04:50:33;0.80;;;0.40;;
20038;SDS011;21737;42.868;25.320;2024-03-25T04:52:59;1.23;;;0.50;;
20038;SDS011;21737;42.868;25.320;2024-03-25T04:55:26;1.00;;;0.47;;
20038;SDS011;21737;42.868;25.320;2024-03-25T04:57:59;1.15;;;0.40;;
20038;SDS011;21737;42.868;25.320;2024-03-25T05:00:25;0.55;;;0.22;;
20038;SDS011;21737;42.868;25.320;2024-03-25T05:02:52;1.05;;;0.50;;
20038;SDS011;21737;42.868;25.320;2024-03-25T05:05:18;0.30;;;0.17;;
20038;SDS011;21737;42.868;25.320;2024-03-25T05:07:44;1.63;;;0.40;;
20038;SDS011;21737;42.868;25.320;2024-03-25T05:10:10;1.55;;;0.50;;
20038;SDS011;21737;42.868;25.320;2024-03-25T05:12:36;1.67;;;0.60;;
20038;SDS011;21737;42.868;25.320;2024-03-25T05:15:01;0.57;;;0.30;;
20038;SDS011;21737;42.868;25.320;2024-03-25T05:17:29;3.28;;;1.00;;
20038;SDS011;21737;42.868;25.320;2024-03-25T05:19:55;3.38;;;0.90;;
20038;SDS011;21737;42.868;25.320;2024-03-25T05:22:22;4.10;;;1.52;;
20038;SDS011;21737;42.868;25.320;2024-03-25T05:24:49;8.40;;;1.70;;
20038;SDS011;21737;42.868;25.320;2024-03-25T05:27:15;6.75;;;2.92;;
20038;SDS011;21737;42.868;25.320;2024-03-25T05:29:43;4.18;;;2.50;;
20038;SDS011;21737;42.868;25.320;2024-03-25T05:32:10;3.78;;;1.95;;
20038;SDS011;21737;42.868;25.320;2024-03-25T05:34:37;3.72;;;1.90;;
20038;SDS011;21737;42.868;25.320;2024-03-25T05:37:04;4.80;;;2.67;;
20038;SDS011;21737;42.868;25.320;2024-03-25T05:39:30;6.50;;;3.47;;
20038;SDS011;21737;42.868;25.320;2024-03-25T05:41:56;5.25;;;2.95;;
20038;SDS011;21737;42.868;25.320;2024-03-25T05:44:22;5.20;;;2.15;;
20038;SDS011;21737;42.868;25.320;2024-03-25T05:46:48;7.40;;;3.05;;
20038;SDS011;21737;42.868;25.320;2024-03-25T05:49:14;6.03;;;3.03;;
20038;SDS011;21737;42.868;25.320;2024-03-25T05:51:40;7.30;;;3.75;;
20038;SDS011;21737;42.868;25.320;2024-03-25T05:54:13;6.32;;;3.47;;
20038;SDS011;21737;42.868;25.320;2024-03-25T05:56:40;8.50;;;4.13;;
20038;SDS011;21737;42.868;25.320;2024-03-25T05:59:06;9.30;;;4.65;;
20038;SDS011;21737;42.868;25.320;2024-03-25T06:01:32;5.53;;;3.58;;
20038;SDS011;21737;42.868;25.320;2024-03-25T06:03:59;8.20;;;3.92;;
20038;SDS011;21737;42.868;25.320;2024-03-25T06:06:25;15.20;;;8.85;;
20038;SDS011;21737;42.868;25.320;2024-03-25T06:08:51;15.52;;;7.45;;
20038;SDS011;21737;42.868;25.320;2024-03-25T06:11:19;13.02;;;4.40;;
20038;SDS011;21737;42.868;25.320;2024-03-25T06:13:46;10.05;;;4.93;;
20038;SDS011;21737;42.868;25.320;2024-03-25T06:16:13;12.43;;;5.50;;
20038;SDS011;21737;42.868;25.320;2024-03-25T06:18:39;9.63;;;4.68;;
20038;SDS011;21737;42.868;25.320;2024-03-25T06:21:11;13.48;;;6.45;;
20038;SDS011;21737;42.868;25.320;2024-03-25T06:23:38;13.95;;;7.03;;
20038;SDS011;21737;42.868;25.320;2024-03-25T06:26:06;18.77;;;4.72;;
20038;SDS011;21737;42.868;25.320;2024-03-25T06:28:32;11.68;;;4.40;;
20038;SDS011;21737;42.868;25.320;2024-03-25T06:30:58;10.50;;;5.43;;
20038;SDS011;21737;42.868;25.320;2024-03-25T06:33:42;10.18;;;4.93;;
20038;SDS011;21737;42.868;25.320;2024-03-25T06:36:28;11.30;;;4.97;;
20038;SDS011;21737;42.868;25.320;2024-03-25T06:38:56;14.68;;;5.35;;
20038;SDS011;21737;42.868;25.320;2024-03-25T06:41:23;9.02;;;4.72;;
20038;SDS011;21737;42.868;25.320;2024-03-25T06:43:50;7.97;;;4.25;;
20038;SDS011;21737;42.868;25.320;2024-03-25T06:46:22;6.63;;;3.78;;
20038;SDS011;21737;42.868;25.320;2024-03-25T06:48:48;7.78;;;3.53;;
20038;SDS011;21737;42.868;25.320;2024-03-25T06:51:15;5.97;;;3.42;;
20038;SDS011;21737;42.868;25.320;2024-03-25T06:53:41;11.50;;;5.25;;
20038;SDS011;21737;42.868;25.320;2024-03-25T06:56:07;12.77;;;5.43;;
20038;SDS011;21737;42.868;25.320;2024-03-25T06:58:34;5.10;;;3.35;;
20038;SDS011;21737;42.868;25.320;2024-03-25T07:01:05;10.90;;;5.00;;
20038;SDS011;21737;42.868;25.320;2024-03-25T07:03:33;10.05;;;4.43;;
20038;SDS011;21737;42.868;25.320;2024-03-25T07:06:00;10.65;;;4.60;;
20038;SDS011;21737;42.868;25.320;2024-03-25T07:08:27;7.97;;;3.03;;
20038;SDS011;21737;42.868;25.320;2024-03-25T07:11:01;8.80;;;4.25;;
20038;SDS011;21737;42.868;25.320;2024-03-25T07:13:29;7.60;;;4.45;;
20038;SDS011;21737;42.868;25.320;2024-03-25T07:15:55;10.07;;;4.35;;
20038;SDS011;21737;42.868;25.320;2024-03-25T07:18:21;5.93;;;3.13;;
20038;SDS011;21737;42.868;25.320;2024-03-25T07:20:47;12.90;;;5.05;;
20038;SDS011;21737;42.868;25.320;2024-03-25T07:23:15;6.88;;;3.08;;
20038;SDS011;21737;42.868;25.320;2024-03-25T07:25:42;9.57;;;4.55;;
20038;SDS011;21737;42.868;25.320;2024-03-25T07:28:08;10.02;;;4.20;;
20038;SDS011;21737;42.868;25.320;2024-03-25T07:30:34;11.75;;;4.15;;
20038;SDS011;21737;42.868;25.320;2024-03-25T07:33:02;6.93;;;3.72;;
20038;SDS011;21737;42.868;25.320;2024-03-25T07:35:31;6.88;;;3.70;;
20038;SDS011;21737;42.868;25.320;2024-03-25T07:37:59;11.27;;;3.90;;
20038;SDS011;21737;42.868;25.320;2024-03-25T07:40:25;15.52;;;7.75;;
20038;SDS011;21737;42.868;25.320;2024-03-25T07:42:52;6.60;;;2.63;;
20038;SDS011;21737;42.868;25.320;2024-03-25T07:45:20;4.85;;;2.65;;
20038;SDS011;21737;42.868;25.320;2024-03-25T07:47:46;10.02;;;4.70;;
20038;SDS011;21737;42.868;25.320;2024-03-25T07:50:13;9.88;;;4.72;;
20038;SDS011;21737;42.868;25.320;2024-03-25T07:52:41;7.90;;;4.00;;
20038;SDS011;21737;42.868;25.320;2024-03-25T07:55:08;6.70;;;3.10;;
20038;SDS011;21737;42.868;25.320;2024-03-25T07:57:34;8.40;;;4.38;;
20038;SDS011;21737;42.868;25.320;2024-03-25T08:00:00;18.55;;;15.48;;
20038;SDS011;21737;42.868;25.320;2024-03-25T08:02:26;11.15;;;4.38;;
20038;SDS011;21737;42.868;25.320;2024-03-25T08:04:55;14.45;;;6.07;;
20038;SDS011;21737;42.868;25.320;2024-03-25T08:07:21;13.43;;;6.00;;
20038;SDS011;21737;42.868;25.320;2024-03-25T08:09:47;9.48;;;3.92;;
20038;SDS011;21737;42.868;25.320;2024-03-25T08:12:13;8.82;;;4.18;;
20038;SDS011;21737;42.868;25.320;2024-03-25T08:14:39;8.18;;;3.85;;
20038;SDS011;21737;42.868;25.320;2024-03-25T08:17:05;7.35;;;3.63;;
20038;SDS011;21737;42.868;25.320;2024-03-25T08:19:32;6.78;;;3.80;;
20038;SDS011;21737;42.868;25.320;2024-03-25T08:21:59;7.85;;;3.28;;
20038;SDS011;21737;42.868;25.320;2024-03-25T08:24:26;7.60;;;3.67;;
20038;SDS011;21737;42.868;25.320;2024-03-25T08:26:52;6.22;;;2.83;;
20038;SDS011;21737;42.868;25.320;2024-03-25T08:29:19;7.40;;;3.53;;
20038;SDS011;21737;42.868;25.320;2024-03-25T08:31:45;6.30;;;3.40;;
20038;SDS011;21737;42.868;25.320;2024-03-25T08:34:11;7.40;;;3.97;;
20038;SDS011;21737;42.868;25.320;2024-03-25T08:36:38;7.28;;;3.95;;
20038;SDS011;21737;42.868;25.320;2024-03-25T08:39:04;12.23;;;4.88;;
20038;SDS011;21737;42.868;25.320;2024-03-25T08:41:30;7.68;;;3.83;;
20038;SDS011;21737;42.868;25.320;2024-03-25T08:43:56;9.20;;;4.05;;
20038;SDS011;21737;42.868;25.320;2024-03-25T08:46:22;8.73;;;4.22;;
20038;SDS011;21737;42.868;25.320;2024-03-25T08:48:48;8.07;;;4.70;;
20038;SDS011;21737;42.868;25.320;2024-03-25T08:51:15;8.25;;;3.53;;
20038;SDS011;21737;42.868;25.320;2024-03-25T08:53:41;7.03;;;3.65;;
20038;SDS011;21737;42.868;25.320;2024-03-25T08:56:08;11.93;;;5.90;;
20038;SDS011;21737;42.868;25.320;2024-03-25T08:58:34;7.47;;;3.60;;
20038;SDS011;21737;42.868;25.320;2024-03-25T09:01:01;7.85;;;4.20;;
20038;SDS011;21737;42.868;25.320;2024-03-25T09:03:28;10.35;;;3.75;;
20038;SDS011;21737;42.868;25.320;2024-03-25T09:05:55;8.73;;;4.70;;
20038;SDS011;21737;42.868;25.320;2024-03-25T09:08:22;7.38;;;4.28;;
20038;SDS011;21737;42.868;25.320;2024-03-25T09:10:48;10.95;;;4.75;;
20038;SDS011;21737;42.868;25.320;2024-03-25T09:13:30;9.20;;;5.30;;
20038;SDS011;21737;42.868;25.320;2024-03-25T09:15:56;11.13;;;5.10;;
20038;SDS011;21737;42.868;25.320;2024-03-25T09:18:22;12.82;;;5.78;;
20038;SDS011;21737;42.868;25.320;2024-03-25T09:20:48;11.68;;;4.88;;
20038;SDS011;21737;42.868;25.320;2024-03-25T09:23:14;9.18;;;4.65;;
20038;SDS011;21737;42.868;25.320;2024-03-25T09:25:50;10.00;;;4.47;;
20038;SDS011;21737;42.868;25.320;2024-03-25T09:28:16;7.90;;;4.15;;
20038;SDS011;21737;42.868;25.320;2024-03-25T09:30:41;12.02;;;4.90;;
20038;SDS011;21737;42.868;25.320;2024-03-25T09:33:07;8.60;;;3.97;;
20038;SDS011;21737;42.868;25.320;2024-03-25T09:35:34;8.05;;;4.45;;
20038;SDS011;21737;42.868;25.320;2024-03-25T09:38:00;8.90;;;4.50;;
20038;SDS011;21737;42.868;25.320;2024-03-25T09:40:26;5.85;;;3.42;;
20038;SDS011;21737;42.868;25.320;2024-03-25T09:42:59;7.13;;;4.18;;
20038;SDS011;21737;42.868;25.320;2024-03-25T09:45:29;5.22;;;3.38;;
20038;SDS011;21737;42.868;25.320;2024-03-25T09:47:56;4.18;;;2.65;;
20038;SDS011;21737;42.868;25.320;2024-03-25T09:50:24;5.13;;;2.78;;
20038;SDS011;21737;42.868;25.320;2024-03-25T09:52:50;5.45;;;3.08;;
20038;SDS011;21737;42.868;25.320;2024-03-25T09:55:18;5.68;;;3.17;;
20038;SDS011;21737;42.868;25.320;2024-03-25T09:57:44;8.00;;;4.28;;
20038;SDS011;21737;42.868;25.320;2024-03-25T10:00:12;8.48;;;4.03;;
20038;SDS011;21737;42.868;25.320;2024-03-25T10:02:40;10.90;;;3.40;;
20038;SDS011;21737;42.868;25.320;2024-03-25T10:05:07;5.68;;;2.70;;
20038;SDS011;21737;42.868;25.320;2024-03-25T10:07:34;7.00;;;3.80;;
20038;SDS011;21737;42.868;25.320;2024-03-25T10:10:04;9.35;;;3.90;;
20038;SDS011;21737;42.868;25.320;2024-03-25T10:12:32;9.43;;;3.95;;
20038;SDS011;21737;42.868;25.320;2024-03-25T10:14:59;10.15;;;4.82;;
20038;SDS011;21737;42.868;25.320;2024-03-25T10:17:25;10.13;;;4.82;;
20038;SDS011;21737;42.868;25.320;2024-03-25T10:19:53;12.15;;;4.60;;
20038;SDS011;21737;42.868;25.320;2024-03-25T10:22:19;9.93;;;4.93;;
20038;SDS011;21737;42.868;25.320;2024-03-25T10:24:46;10.23;;;4.55;;
20038;SDS011;21737;42.868;25.320;2024-03-25T10:27:23;7.95;;;3.85;;
20038;SDS011;21737;42.868;25.320;2024-03-25T10:29:53;12.23;;;4.95;;
20038;SDS011;21737;42.868;25.320;2024-03-25T10:32:23;12.90;;;5.88;;
20038;SDS011;21737;42.868;25.320;2024-03-25T10:34:50;10.25;;;5.10;;
20038;SDS011;21737;42.868;25.320;2024-03-25T10:37:16;12.35;;;6.32;;
20038;SDS011;21737;42.868;25.320;2024-03-25T10:39:47;10.10;;;4.47;;
20038;SDS011;21737;42.868;25.320;2024-03-25T10:42:23;7.97;;;4.22;;
20038;SDS011;21737;42.868;25.320;2024-03-25T10:44:51;8.30;;;4.10;;
20038;SDS011;21737;42.868;25.320;2024-03-25T10:47:28;16.88;;;5.35;;
20038;SDS011;21737;42.868;25.320;2024-03-25T10:49:59;8.63;;;4.85;;
20038;SDS011;21737;42.868;25.320;2024-03-25T10:52:32;8.65;;;4.55;;
20038;SDS011;21737;42.868;25.320;2024-03-25T10:54:59;10.13;;;5.55;;
20038;SDS011;21737;42.868;25.320;2024-03-25T10:57:26;5.13;;;2.65;;
20038;SDS011;21737;42.868;25.320;2024-03-25T10:59:54;12.23;;;5.32;;
20038;SDS011;21737;42.868;25.320;2024-03-25T11:02:22;9.05;;;4.55;;
20038;SDS011;21737;42.868;25.320;2024-03-25T11:04:49;4.40;;;2.75;;
20038;SDS011;21737;42.868;25.320;2024-03-25T11:07:50;5.50;;;3.17;;
20038;SDS011;21737;42.868;25.320;2024-03-25T11:10:09;8.05;;;3.60;;
20038;SDS011;21737;42.868;25.320;2024-03-25T11:12:38;7.00;;;2.83;;
20038;SDS011;21737;42.868;25.320;2024-03-25T11:15:07;4.80;;;2.65;;
20038;SDS011;21737;42.868;25.320;2024-03-25T11:17:34;5.65;;;3.30;;
20038;SDS011;21737;42.868;25.320;2024-03-25T11:20:08;4.38;;;2.35;;
20038;SDS011;21737;42.868;25.320;2024-03-25T11:22:48;4.55;;;2.28;;
20038;SDS011;21737;42.868;25.320;2024-03-25T11:25:16;4.22;;;2.33;;
20038;SDS011;21737;42.868;25.320;2024-03-25T11:27:45;6.10;;;2.53;;
20038;SDS011;21737;42.868;25.320;2024-03-25T11:30:13;4.43;;;2.53;;
20038;SDS011;21737;42.868;25.320;2024-03-25T11:32:49;4.95;;;2.08;;
20038;SDS011;21737;42.868;25.320;2024-03-25T11:35:18;6.00;;;3.08;;
20038;SDS011;21737;42.868;25.320;2024-03-25T11:37:44;2.08;;;1.58;;
20038;SDS011;21737;42.868;25.320;2024-03-25T11:40:11;6.30;;;3.08;;
20038;SDS011;21737;42.868;25.320;2024-03-25T11:42:39;3.78;;;1.70;;
20038;SDS011;21737;42.868;25.320;2024-03-25T11:45:19;5.32;;;2.92;;
20038;SDS011;21737;42.868;25.320;2024-03-25T11:47:49;9.95;;;4.45;;
20038;SDS011;21737;42.868;25.320;2024-03-25T11:50:15;5.88;;;3.85;;
20038;SDS011;21737;42.868;25.320;2024-03-25T11:52:42;4.47;;;2.30;;
20038;SDS011;21737;42.868;25.320;2024-03-25T11:55:09;2.83;;;1.70;;
20038;SDS011;21737;42.868;25.320;2024-03-25T11:57:41;11.75;;;2.22;;
20038;SDS011;21737;42.868;25.320;2024-03-25T12:00:08;8.52;;;2.63;;
20038;SDS011;21737;42.868;25.320;2024-03-25T12:02:43;2.80;;;1.88;;
20038;SDS011;21737;42.868;25.320;2024-03-25T12:05:11;4.43;;;2.97;;
20038;SDS011;21737;42.868;25.320;2024-03-25T12:07:56;5.43;;;2.75;;
20038;SDS011;21737;42.868;25.320;2024-03-25T12:10:22;4.05;;;1.58;;
20038;SDS011;21737;42.868;25.320;2024-03-25T12:13:17;9.52;;;2.75;;
20038;SDS011;21737;42.868;25.320;2024-03-25T12:15:45;8.05;;;2.83;;
20038;SDS011;21737;42.868;25.320;2024-03-25T12:18:17;6.40;;;2.90;;
20038;SDS011;21737;42.868;25.320;2024-03-25T12:20:48;11.15;;;5.70;;
20038;SDS011;21737;42.868;25.320;2024-03-25T12:23:14;7.65;;;4.43;;
20038;SDS011;21737;42.868;25.320;2024-03-25T12:25:40;7.20;;;3.05;;
20038;SDS011;21737;42.868;25.320;2024-03-25T12:28:12;5.68;;;3.55;;
20038;SDS011;21737;42.868;25.320;2024-03-25T12:33:18;6.88;;;3.42;;
20038;SDS011;21737;42.868;25.320;2024-03-25T12:35:50;7.10;;;2.70;;
20038;SDS011;21737;42.868;25.320;2024-03-25T12:38:24;7.30;;;2.83;;
20038;SDS011;21737;42.868;25.320;2024-03-25T12:40:52;4.22;;;2.25;;
20038;SDS011;21737;42.868;25.320;2024-03-25T12:43:19;4.57;;;3.13;;
20038;SDS011;21737;42.868;25.320;2024-03-25T12:45:45;7.03;;;3.00;;
20038;SDS011;21737;42.868;25.320;2024-03-25T12:48:12;4.53;;;2.10;;
20038;SDS011;21737;42.868;25.320;2024-03-25T12:50:39;7.13;;;3.70;;
20038;SDS011;21737;42.868;25.320;2024-03-25T12:53:06;6.22;;;3.35;;
20038;SDS011;21737;42.868;25.320;2024-03-25T12:55:32;6.82;;;3.03;;
20038;SDS011;21737;42.868;25.320;2024-03-25T12:57:58;7.50;;;4.20;;
20038;SDS011;21737;42.868;25.320;2024-03-25T13:00:24;5.88;;;3.55;;
20038;SDS011;21737;42.868;25.320;2024-03-25T13:02:50;5.13;;;2.55;;
20038;SDS011;21737;42.868;25.320;2024-03-25T13:05:17;15.25;;;5.45;;
20038;SDS011;21737;42.868;25.320;2024-03-25T13:07:43;8.30;;;2.90;;
20038;SDS011;21737;42.868;25.320;2024-03-25T13:10:08;5.85;;;3.33;;
20038;SDS011;21737;42.868;25.320;2024-03-25T13:12:34;4.53;;;2.80;;
20038;SDS011;21737;42.868;25.320;2024-03-25T13:15:00;6.38;;;3.35;;
20038;SDS011;21737;42.868;25.320;2024-03-25T13:17:27;7.22;;;3.05;;
20038;SDS011;21737;42.868;25.320;2024-03-25T13:19:59;6.68;;;3.22;;
20038;SDS011;21737;42.868;25.320;2024-03-25T13:22:25;8.13;;;3.05;;
20038;SDS011;21737;42.868;25.320;2024-03-25T13:24:52;7.30;;;3.40;;
20038;SDS011;21737;42.868;25.320;2024-03-25T13:27:17;10.15;;;4.22;;
20038;SDS011;21737;42.868;25.320;2024-03-25T13:29:43;9.80;;;5.25;;
20038;SDS011;21737;42.868;25.320;2024-03-25T13:32:09;5.75;;;3.15;;
20038;SDS011;21737;42.868;25.320;2024-03-25T13:34:35;5.90;;;3.47;;
20038;SDS011;21737;42.868;25.320;2024-03-25T13:37:02;6.15;;;3.45;;
20038;SDS011;21737;42.868;25.320;2024-03-25T13:39:29;4.70;;;3.20;;
20038;SDS011;21737;42.868;25.320;2024-03-25T13:41:55;9.90;;;3.35;;
20038;SDS011;21737;42.868;25.320;2024-03-25T13:44:27;10.57;;;3.10;;
20038;SDS011;21737;42.868;25.320;2024-03-25T13:46:54;7.22;;;3.40;;
20038;SDS011;21737;42.868;25.320;2024-03-25T13:49:20;6.97;;;3.33;;
20038;SDS011;21737;42.868;25.320;2024-03-25T13:51:48;10.43;;;4.07;;
20038;SDS011;21737;42.868;25.320;2024-03-25T13:54:26;7.07;;;3.50;;
20038;SDS011;21737;42.868;25.320;2024-03-25T13:56:54;7.60;;;3.40;;
20038;SDS011;21737;42.868;25.320;2024-03-25T13:59:20;7.18;;;4.20;;
20038;SDS011;21737;42.868;25.320;2024-03-25T14:01:47;8.70;;;4.30;;
20038;SDS011;21737;42.868;25.320;2024-03-25T14:04:13;7.47;;;3.13;;
20038;SDS011;21737;42.868;25.320;2024-03-25T14:06:39;7.32;;;4.00;;
20038;SDS011;21737;42.868;25.320;2024-03-25T14:11:56;10.02;;;4.75;;
20038;SDS011;21737;42.868;25.320;2024-03-25T14:14:24;14.73;;;7.82;;
20038;SDS011;21737;42.868;25.320;2024-03-25T14:16:50;10.30;;;4.88;;
20038;SDS011;21737;42.868;25.320;2024-03-25T14:19:18;10.00;;;4.90;;
20038;SDS011;21737;42.868;25.320;2024-03-25T14:21:51;12.35;;;6.45;;
20038;SDS011;21737;42.868;25.320;2024-03-25T14:24:17;11.60;;;5.38;;
20038;SDS011;21737;42.868;25.320;2024-03-25T14:26:43;12.68;;;6.28;;
20038;SDS011;21737;42.868;25.320;2024-03-25T14:29:09;9.13;;;4.60;;
20038;SDS011;21737;42.868;25.320;2024-03-25T14:31:35;10.55;;;5.00;;
20038;SDS011;21737;42.868;25.320;2024-03-25T14:34:03;11.98;;;6.28;;
20038;SDS011;21737;42.868;25.320;2024-03-25T14:36:29;7.13;;;3.90;;
20038;SDS011;21737;42.868;25.320;2024-03-25T14:38:55;8.75;;;4.30;;
20038;SDS011;21737;42.868;25.320;2024-03-25T14:41:21;8.73;;;4.88;;